sensor_id;sensor_type;location;lat;lon;timestamp;pressure;altitude;pressure_sealevel;temperature;humidity
29045;BME280;16133;49.486;12.176;2023-08-07T00:00:51;96459.53;;;11.40;100.00
29045;BME280;16133;49.486;12.176;2023-08-07T00:03:16;96450.75;;;11.40;100.00
29045;BME280;16133;49.486;12.176;2023-08-07T00:05:49;96456.06;;;11.40;100.00
29045;BME280;16133;49.486;12.176;2023-08-07T00:08:17;96459.34;;;11.35;100.00
29045;BME280;16133;49.486;12.176;2023-08-07T00:10:42;96452.38;;;11.41;100.00
29045;BME280;16133;49.486;12.176;2023-08-07T00:13:07;96463.00;;;11.41;100.00
29045;BME280;16133;49.486;12.176;2023-08-07T00:15:33;96463.44;;;11.38;100.00
29045;BME280;16133;49.486;12.176;2023-08-07T00:17:59;96457.72;;;11.34;100.00
29045;BME280;16133;49.486;12.176;2023-08-07T00:20:25;96470.16;;;11.40;100.00
29045;BME280;16133;49.486;12.176;2023-08-07T00:22:50;96468.75;;;11.38;100.00
29045;BME280;16133;49.486;12.176;2023-08-07T00:25:18;96460.16;;;11.36;100.00
29045;BME280;16133;49.486;12.176;2023-08-07T00:27:44;96449.53;;;11.36;100.00
29045;BME280;16133;49.486;12.176;2023-08-07T00:30:10;96444.63;;;11.39;100.00
29045;BME280;16133;49.486;12.176;2023-08-07T00:32:35;96444.63;;;11.33;100.00
29045;BME280;16133;49.486;12.176;2023-08-07T00:35:01;96438.31;;;11.34;100.00
29045;BME280;16133;49.486;12.176;2023-08-07T00:37:26;96416.88;;;11.29;100.00
29045;BME280;16133;49.486;12.176;2023-08-07T00:39:51;96421.75;;;11.32;100.00
29045;BME280;16133;49.486;12.176;2023-08-07T00:42:17;96398.28;;;11.29;100.00
29045;BME280;16133;49.486;12.176;2023-08-07T00:44:42;96389.50;;;11.28;100.00
29045;BME280;16133;49.486;12.176;2023-08-07T00:47:07;96379.09;;;11.27;100.00
29045;BME280;16133;49.486;12.176;2023-08-07T00:49:33;96376.00;;;11.30;100.00
29045;BME280;16133;49.486;12.176;2023-08-07T00:51:59;96374.56;;;11.27;100.00
29045;BME280;16133;49.486;12.176;2023-08-07T00:54:25;96370.31;;;11.26;100.00
29045;BME280;16133;49.486;12.176;2023-08-07T00:56:51;96358.25;;;11.24;100.00
29045;BME280;16133;49.486;12.176;2023-08-07T00:59:16;96365.81;;;11.27;100.00
29045;BME280;16133;49.486;12.176;2023-08-07T01:01:43;96360.47;;;11.33;100.00
29045;BME280;16133;49.486;12.176;2023-08-07T01:04:08;96358.03;;;11.25;100.00
29045;BME280;16133;49.486;12.176;2023-08-07T01:06:34;96362.53;;;11.25;100.00
29045;BME280;16133;49.486;12.176;2023-08-07T01:08:59;96363.97;;;11.21;100.00
29045;BME280;16133;49.486;12.176;2023-08-07T01:14:36;96357.66;;;11.22;100.00
29045;BME280;16133;49.486;12.176;2023-08-07T01:17:11;96360.50;;;11.20;100.00
29045;BME280;16133;49.486;12.176;2023-08-07T01:19:37;96365.66;;;11.15;100.00
29045;BME280;16133;49.486;12.176;2023-08-07T01:22:07;96358.88;;;11.13;100.00
29045;BME280;16133;49.486;12.176;2023-08-07T01:24:33;96357.25;;;11.18;100.00
29045;BME280;16133;49.486;12.176;2023-08-07T01:35:36;96380.13;;;11.13;100.00
29045;BME280;16133;49.486;12.176;2023-08-07T01:38:05;96381.78;;;11.14;100.00
29045;BME280;16133;49.486;12.176;2023-08-07T01:40:30;96378.31;;;11.07;100.00
29045;BME280;16133;49.486;12.176;2023-08-07T01:42:57;96376.88;;;11.11;100.00
29045;BME280;16133;49.486;12.176;2023-08-07T01:45:27;96372.38;;;11.11;100.00
29045;BME280;16133;49.486;12.176;2023-08-07T01:47:53;96367.88;;;11.12;100.00
29045;BME280;16133;49.486;12.176;2023-08-07T01:50:19;96376.09;;;11.03;100.00
29045;BME280;16133;49.486;12.176;2023-08-07T01:52:45;96365.63;;;11.09;100.00
29045;BME280;16133;49.486;12.176;2023-08-07T01:55:15;96356.44;;;11.18;100.00
29045;BME280;16133;49.486;12.176;2023-08-07T01:57:41;96370.34;;;11.13;100.00
29045;BME280;16133;49.486;12.176;2023-08-07T02:00:07;96368.91;;;11.11;100.00
29045;BME280;16133;49.486;12.176;2023-08-07T02:02:34;96369.72;;;11.04;100.00
29045;BME280;16133;49.486;12.176;2023-08-07T02:04:59;96362.56;;;11.12;100.00
29045;BME280;16133;49.486;12.176;2023-08-07T02:07:24;96373.00;;;11.07;100.00
29045;BME280;16133;49.486;12.176;2023-08-07T02:09:50;96376.09;;;11.03;100.00
29045;BME280;16133;49.486;12.176;2023-08-07T02:12:15;96373.81;;;11.00;100.00
29045;BME280;16133;49.486;12.176;2023-08-07T02:14:41;96383.81;;;11.05;100.00
29045;BME280;16133;49.486;12.176;2023-08-07T02:17:06;96377.28;;;11.01;100.00
29045;BME280;16133;49.486;12.176;2023-08-07T02:19:31;96361.38;;;11.01;100.00
29045;BME280;16133;49.486;12.176;2023-08-07T02:21:57;96363.81;;;11.02;100.00
29045;BME280;16133;49.486;12.176;2023-08-07T02:24:22;96348.13;;;10.94;100.00
29045;BME280;16133;49.486;12.176;2023-08-07T02:26:48;96362.59;;;11.05;100.00
29045;BME280;16133;49.486;12.176;2023-08-07T02:29:13;96365.03;;;11.07;100.00
29045;BME280;16133;49.486;12.176;2023-08-07T02:31:39;96370.16;;;11.01;100.00
29045;BME280;16133;49.486;12.176;2023-08-07T02:34:04;96366.69;;;10.94;100.00
29045;BME280;16133;49.486;12.176;2023-08-07T02:36:29;96378.53;;;10.98;100.00
29045;BME280;16133;49.486;12.176;2023-08-07T02:38:55;96379.34;;;10.99;100.00
29045;BME280;16133;49.486;12.176;2023-08-07T02:41:20;96378.31;;;11.00;100.00
29045;BME280;16133;49.486;12.176;2023-08-07T02:43:46;96372.81;;;11.01;100.00
29045;BME280;16133;49.486;12.176;2023-08-07T02:46:11;96374.22;;;11.04;100.00
29045;BME280;16133;49.486;12.176;2023-08-07T02:48:36;96375.25;;;11.03;100.00
29045;BME280;16133;49.486;12.176;2023-08-07T02:51:02;96377.28;;;11.01;100.00
29045;BME280;16133;49.486;12.176;2023-08-07T02:53:28;96374.88;;;10.99;100.00
29045;BME280;16133;49.486;12.176;2023-08-07T02:55:53;96389.16;;;10.98;100.00
29045;BME280;16133;49.486;12.176;2023-08-07T02:58:19;96386.28;;;11.00;100.00
29045;BME280;16133;49.486;12.176;2023-08-07T03:00:44;96383.22;;;11.03;100.00
29045;BME280;16133;49.486;12.176;2023-08-07T03:03:09;96378.53;;;10.98;100.00
29045;BME280;16133;49.486;12.176;2023-08-07T03:05:35;96387.50;;;11.04;100.00
29045;BME280;16133;49.486;12.176;2023-08-07T03:08:00;96394.47;;;10.98;100.00
29045;BME280;16133;49.486;12.176;2023-08-07T03:10:26;96389.56;;;10.95;100.00
29045;BME280;16133;49.486;12.176;2023-08-07T03:12:51;96383.25;;;10.90;100.00
29045;BME280;16133;49.486;12.176;2023-08-07T03:15:17;96386.31;;;10.87;100.00
29045;BME280;16133;49.486;12.176;2023-08-07T03:17:42;96383.66;;;10.80;100.00
29045;BME280;16133;49.486;12.176;2023-08-07T03:20:08;96382.25;;;10.84;100.00
29045;BME280;16133;49.486;12.176;2023-08-07T03:22:34;96394.88;;;10.82;100.00
29045;BME280;16133;49.486;12.176;2023-08-07T03:25:00;96396.91;;;10.93;100.00
29045;BME280;16133;49.486;12.176;2023-08-07T03:27:25;96414.91;;;10.91;100.00
29045;BME280;16133;49.486;12.176;2023-08-07T03:29:50;96400.81;;;10.84;100.00
29045;BME280;16133;49.486;12.176;2023-08-07T03:32:18;96415.91;;;10.77;100.00
29045;BME280;16133;49.486;12.176;2023-08-07T03:34:43;96412.88;;;10.80;100.00
29045;BME280;16133;49.486;12.176;2023-08-07T03:37:08;96412.03;;;10.80;100.00
29045;BME280;16133;49.486;12.176;2023-08-07T03:39:34;96406.50;;;10.81;100.00
29045;BME280;16133;49.486;12.176;2023-08-07T03:41:59;96411.63;;;10.83;100.00
29045;BME280;16133;49.486;12.176;2023-08-07T03:44:25;96421.66;;;10.81;100.00
29045;BME280;16133;49.486;12.176;2023-08-07T03:46:50;96428.78;;;10.80;100.00
29045;BME280;16133;49.486;12.176;2023-08-07T03:49:16;96430.22;;;10.76;100.00
29045;BME280;16133;49.486;12.176;2023-08-07T03:51:42;96426.75;;;10.76;100.00
29045;BME280;16133;49.486;12.176;2023-08-07T03:54:07;96435.91;;;10.73;100.00
29045;BME280;16133;49.486;12.176;2023-08-07T03:56:33;96440.00;;;10.76;100.00
29045;BME280;16133;49.486;12.176;2023-08-07T03:59:04;96433.66;;;10.70;100.00
29045;BME280;16133;49.486;12.176;2023-08-07T04:01:30;96440.59;;;10.71;100.00
29045;BME280;16133;49.486;12.176;2023-08-07T04:03:55;96441.44;;;10.65;100.00
29045;BME280;16133;49.486;12.176;2023-08-07T04:06:20;96455.94;;;10.69;100.00
29045;BME280;16133;49.486;12.176;2023-08-07T04:08:46;96456.72;;;10.63;100.00
29045;BME280;16133;49.486;12.176;2023-08-07T04:11:12;96456.94;;;10.62;100.00
29045;BME280;16133;49.486;12.176;2023-08-07T04:13:37;96463.66;;;10.58;100.00
29045;BME280;16133;49.486;12.176;2023-08-07T04:16:03;96465.91;;;10.67;100.00
29045;BME280;16133;49.486;12.176;2023-08-07T04:18:30;96461.25;;;10.69;100.00
29045;BME280;16133;49.486;12.176;2023-08-07T04:20:56;96471.22;;;10.67;100.00
29045;BME280;16133;49.486;12.176;2023-08-07T04:23:22;96472.22;;;10.66;100.00
29045;BME280;16133;49.486;12.176;2023-08-07T04:25:48;96476.53;;;10.61;100.00
29045;BME280;16133;49.486;12.176;2023-08-07T04:28:14;96473.66;;;10.62;100.00
29045;BME280;16133;49.486;12.176;2023-08-07T04:30:43;96478.56;;;10.72;100.00
29045;BME280;16133;49.486;12.176;2023-08-07T04:33:09;96478.97;;;10.55;100.00
29045;BME280;16133;49.486;12.176;2023-08-07T04:35:34;96476.94;;;10.58;100.00
29045;BME280;16133;49.486;12.176;2023-08-07T04:38:00;96476.72;;;10.66;100.00
29045;BME280;16133;49.486;12.176;2023-08-07T04:40:26;96483.25;;;10.70;100.00
29045;BME280;16133;49.486;12.176;2023-08-07T04:42:51;96480.59;;;10.63;100.00
29045;BME280;16133;49.486;12.176;2023-08-07T04:45:17;96489.56;;;10.62;100.00
29045;BME280;16133;49.486;12.176;2023-08-07T04:47:42;96488.97;;;10.73;100.00
29045;BME280;16133;49.486;12.176;2023-08-07T04:50:08;96494.50;;;10.65;100.00
29045;BME280;16133;49.486;12.176;2023-08-07T04:52:34;96497.75;;;10.61;100.00
29045;BME280;16133;49.486;12.176;2023-08-07T04:54:59;96496.94;;;10.60;100.00
29045;BME280;16133;49.486;12.176;2023-08-07T04:57:25;96500.38;;;10.54;100.00
29045;BME280;16133;49.486;12.176;2023-08-07T04:59:51;96507.34;;;10.68;100.00
29045;BME280;16133;49.486;12.176;2023-08-07T05:02:17;96507.53;;;10.60;100.00
29045;BME280;16133;49.486;12.176;2023-08-07T05:04:42;96505.91;;;10.59;100.00
29045;BME280;16133;49.486;12.176;2023-08-07T05:07:08;96506.31;;;10.63;100.00
29045;BME280;16133;49.486;12.176;2023-08-07T05:09:33;96502.22;;;10.60;100.00
29045;BME280;16133;49.486;12.176;2023-08-07T05:11:58;96516.13;;;10.75;100.00
29045;BME280;16133;49.486;12.176;2023-08-07T05:14:24;96513.03;;;10.59;100.00
29045;BME280;16133;49.486;12.176;2023-08-07T05:16:49;96529.41;;;10.69;100.00
29045;BME280;16133;49.486;12.176;2023-08-07T05:19:14;96522.22;;;10.63;100.00
29045;BME280;16133;49.486;12.176;2023-08-07T05:21:40;96535.53;;;10.69;100.00
29045;BME280;16133;49.486;12.176;2023-08-07T05:24:05;96535.31;;;10.64;100.00
29045;BME280;16133;49.486;12.176;2023-08-07T05:26:31;96527.34;;;10.58;100.00
29045;BME280;16133;49.486;12.176;2023-08-07T05:28:56;96525.09;;;10.68;100.00
29045;BME280;16133;49.486;12.176;2023-08-07T05:31:24;96529.59;;;10.67;100.00
29045;BME280;16133;49.486;12.176;2023-08-07T05:33:50;96532.88;;;10.76;100.00
29045;BME280;16133;49.486;12.176;2023-08-07T05:36:15;96538.41;;;10.81;100.00
29045;BME280;16133;49.486;12.176;2023-08-07T05:38:41;96546.97;;;10.76;100.00
29045;BME280;16133;49.486;12.176;2023-08-07T05:41:08;96547.56;;;10.78;100.00
29045;BME280;16133;49.486;12.176;2023-08-07T05:43:33;96556.53;;;10.71;100.00
29045;BME280;16133;49.486;12.176;2023-08-07T05:45:58;96551.84;;;10.73;100.00
29045;BME280;16133;49.486;12.176;2023-08-07T05:48:24;96556.56;;;10.84;100.00
29045;BME280;16133;49.486;12.176;2023-08-07T05:50:51;96560.63;;;10.80;100.00
29045;BME280;16133;49.486;12.176;2023-08-07T05:53:16;96566.34;;;10.83;100.00
29045;BME280;16133;49.486;12.176;2023-08-07T05:55:42;96575.56;;;10.87;100.00
29045;BME280;16133;49.486;12.176;2023-08-07T05:58:07;96577.38;;;10.87;100.00
29045;BME280;16133;49.486;12.176;2023-08-07T06:00:33;96590.06;;;10.91;100.00
29045;BME280;16133;49.486;12.176;2023-08-07T06:02:58;96584.75;;;10.98;100.00
29045;BME280;16133;49.486;12.176;2023-08-07T06:05:24;96594.16;;;11.07;100.00
29045;BME280;16133;49.486;12.176;2023-08-07T06:07:49;96593.13;;;11.08;100.00
29045;BME280;16133;49.486;12.176;2023-08-07T06:10:15;96598.47;;;11.15;100.00
29045;BME280;16133;49.486;12.176;2023-08-07T06:12:41;96607.25;;;11.15;100.00
29045;BME280;16133;49.486;12.176;2023-08-07T06:15:06;96613.56;;;11.21;100.00
29045;BME280;16133;49.486;12.176;2023-08-07T06:17:32;96620.09;;;11.12;100.00
29045;BME280;16133;49.486;12.176;2023-08-07T06:19:57;96621.94;;;11.18;100.00
29045;BME280;16133;49.486;12.176;2023-08-07T06:22:23;96626.41;;;11.04;100.00
29045;BME280;16133;49.486;12.176;2023-08-07T06:24:48;96589.25;;;11.04;100.00
29045;BME280;16133;49.486;12.176;2023-08-07T06:27:14;96624.19;;;11.27;100.00
29045;BME280;16133;49.486;12.176;2023-08-07T06:29:40;96630.53;;;11.33;100.00
29045;BME280;16133;49.486;12.176;2023-08-07T06:32:05;96640.97;;;11.41;100.00
29045;BME280;16133;49.486;12.176;2023-08-07T06:34:31;96639.13;;;11.35;100.00
29045;BME280;16133;49.486;12.176;2023-08-07T06:36:56;96646.47;;;11.33;100.00
29045;BME280;16133;49.486;12.176;2023-08-07T06:39:22;96664.44;;;11.31;100.00
29045;BME280;16133;49.486;12.176;2023-08-07T06:41:47;96668.56;;;11.27;100.00
29045;BME280;16133;49.486;12.176;2023-08-07T06:44:13;96675.88;;;11.31;100.00
29045;BME280;16133;49.486;12.176;2023-08-07T06:46:38;96670.19;;;11.34;100.00
29045;BME280;16133;49.486;12.176;2023-08-07T06:49:04;96669.19;;;11.48;100.00
29045;BME280;16133;49.486;12.176;2023-08-07T06:51:29;96674.28;;;11.50;100.00
29045;BME280;16133;49.486;12.176;2023-08-07T06:53:54;96680.03;;;11.60;100.00
29045;BME280;16133;49.486;12.176;2023-08-07T06:56:20;96686.16;;;11.61;100.00
29045;BME280;16133;49.486;12.176;2023-08-07T06:58:45;96679.81;;;11.68;100.00
29045;BME280;16133;49.486;12.176;2023-08-07T07:01:11;96689.25;;;11.84;100.00
29045;BME280;16133;49.486;12.176;2023-08-07T07:03:36;96699.06;;;11.90;100.00
29045;BME280;16133;49.486;12.176;2023-08-07T07:06:02;96688.22;;;11.98;100.00
29045;BME280;16133;49.486;12.176;2023-08-07T07:08:27;96697.41;;;12.09;100.00
29045;BME280;16133;49.486;12.176;2023-08-07T07:10:53;96705.19;;;12.17;100.00
29045;BME280;16133;49.486;12.176;2023-08-07T07:13:18;96726.06;;;12.13;100.00
29045;BME280;16133;49.486;12.176;2023-08-07T07:15:44;96738.94;;;12.16;100.00
29045;BME280;16133;49.486;12.176;2023-08-07T07:18:09;96741.41;;;12.18;100.00
29045;BME280;16133;49.486;12.176;2023-08-07T07:20:34;96788.03;;;12.27;100.00
29045;BME280;16133;49.486;12.176;2023-08-07T07:23:00;96803.78;;;12.28;100.00
29045;BME280;16133;49.486;12.176;2023-08-07T07:25:25;96804.00;;;12.40;100.00
29045;BME280;16133;49.486;12.176;2023-08-07T07:27:51;96811.56;;;12.56;100.00
29045;BME280;16133;49.486;12.176;2023-08-07T07:30:16;96846.75;;;12.58;100.00
29045;BME280;16133;49.486;12.176;2023-08-07T07:32:42;96837.94;;;12.58;100.00
29045;BME280;16133;49.486;12.176;2023-08-07T07:35:07;96833.84;;;12.75;100.00
29045;BME280;16133;49.486;12.176;2023-08-07T07:37:33;96838.72;;;12.84;100.00
29045;BME280;16133;49.486;12.176;2023-08-07T07:39:59;96840.75;;;13.09;100.00
29045;BME280;16133;49.486;12.176;2023-08-07T07:42:24;96837.81;;;13.36;100.00
29045;BME280;16133;49.486;12.176;2023-08-07T07:44:51;96863.88;;;13.28;100.00
29045;BME280;16133;49.486;12.176;2023-08-07T07:47:16;96896.22;;;13.38;100.00
29045;BME280;16133;49.486;12.176;2023-08-07T07:49:46;96916.09;;;13.42;100.00
29045;BME280;16133;49.486;12.176;2023-08-07T07:52:15;96931.28;;;13.35;100.00
29045;BME280;16133;49.486;12.176;2023-08-07T07:54:40;96919.63;;;13.23;100.00
29045;BME280;16133;49.486;12.176;2023-08-07T07:57:06;96916.56;;;13.26;100.00
29045;BME280;16133;49.486;12.176;2023-08-07T07:59:31;96906.91;;;13.31;100.00
29045;BME280;16133;49.486;12.176;2023-08-07T08:01:57;96911.97;;;13.53;100.00
29045;BME280;16133;49.486;12.176;2023-08-07T08:04:22;96928.78;;;13.60;100.00
29045;BME280;16133;49.486;12.176;2023-08-07T08:06:48;96980.25;;;13.60;100.00
29045;BME280;16133;49.486;12.176;2023-08-07T08:09:13;96963.63;;;13.58;100.00
29045;BME280;16133;49.486;12.176;2023-08-07T08:11:39;96953.78;;;13.59;100.00
29045;BME280;16133;49.486;12.176;2023-08-07T08:14:04;96960.69;;;13.73;100.00
29045;BME280;16133;49.486;12.176;2023-08-07T08:16:30;96986.13;;;13.82;100.00
29045;BME280;16133;49.486;12.176;2023-08-07T08:18:55;96977.09;;;13.76;100.00
29045;BME280;16133;49.486;12.176;2023-08-07T08:21:20;96986.16;;;13.75;100.00
29045;BME280;16133;49.486;12.176;2023-08-07T08:23:46;97000.47;;;13.81;100.00
29045;BME280;16133;49.486;12.176;2023-08-07T08:26:11;97000.06;;;13.77;100.00
29045;BME280;16133;49.486;12.176;2023-08-07T08:28:37;96990.59;;;13.95;100.00
29045;BME280;16133;49.486;12.176;2023-08-07T08:31:03;97002.03;;;14.08;100.00
29045;BME280;16133;49.486;12.176;2023-08-07T08:33:28;96997.19;;;14.30;100.00
29045;BME280;16133;49.486;12.176;2023-08-07T08:35:54;97029.25;;;14.23;100.00
29045;BME280;16133;49.486;12.176;2023-08-07T08:38:19;97020.88;;;14.20;100.00
29045;BME280;16133;49.486;12.176;2023-08-07T08:40:47;97036.44;;;14.36;100.00
29045;BME280;16133;49.486;12.176;2023-08-07T08:43:13;97048.69;;;14.50;100.00
29045;BME280;16133;49.486;12.176;2023-08-07T08:45:43;97041.56;;;14.75;100.00
29045;BME280;16133;49.486;12.176;2023-08-07T08:48:12;97043.31;;;14.88;100.00
29045;BME280;16133;49.486;12.176;2023-08-07T08:50:42;97047.16;;;14.99;100.00
29045;BME280;16133;49.486;12.176;2023-08-07T08:53:09;97059.66;;;15.05;100.00
29045;BME280;16133;49.486;12.176;2023-08-07T08:55:35;97068.31;;;15.00;100.00
29045;BME280;16133;49.486;12.176;2023-08-07T08:58:01;97071.69;;;14.89;100.00
29045;BME280;16133;49.486;12.176;2023-08-07T09:00:27;97077.31;;;14.74;100.00
29045;BME280;16133;49.486;12.176;2023-08-07T09:02:54;97076.09;;;14.70;100.00
29045;BME280;16133;49.486;12.176;2023-08-07T09:05:20;97078.34;;;14.73;100.00
29045;BME280;16133;49.486;12.176;2023-08-07T09:07:47;97082.28;;;14.71;100.00
29045;BME280;16133;49.486;12.176;2023-08-07T09:10:14;97078.66;;;14.52;100.00
29045;BME280;16133;49.486;12.176;2023-08-07T09:12:44;97084.84;;;14.46;100.00
29045;BME280;16133;49.486;12.176;2023-08-07T09:15:11;97091.63;;;14.42;100.00
29045;BME280;16133;49.486;12.176;2023-08-07T09:17:40;97101.13;;;14.25;100.00
29045;BME280;16133;49.486;12.176;2023-08-07T09:20:07;97100.50;;;14.29;100.00
29045;BME280;16133;49.486;12.176;2023-08-07T09:22:36;97097.41;;;14.32;100.00
29045;BME280;16133;49.486;12.176;2023-08-07T09:25:02;97101.63;;;14.60;100.00
29045;BME280;16133;49.486;12.176;2023-08-07T09:27:28;97102.59;;;14.72;100.00
29045;BME280;16133;49.486;12.176;2023-08-07T09:29:57;97104.53;;;14.96;100.00
29045;BME280;16133;49.486;12.176;2023-08-07T09:32:23;97107.75;;;15.05;100.00
29045;BME280;16133;49.486;12.176;2023-08-07T09:34:50;97109.09;;;15.20;100.00
29045;BME280;16133;49.486;12.176;2023-08-07T09:37:16;97119.28;;;15.37;100.00
29045;BME280;16133;49.486;12.176;2023-08-07T09:39:42;97117.09;;;15.58;100.00
29045;BME280;16133;49.486;12.176;2023-08-07T09:42:14;97119.63;;;15.71;100.00
29045;BME280;16133;49.486;12.176;2023-08-07T09:44:40;97114.91;;;15.73;100.00
29045;BME280;16133;49.486;12.176;2023-08-07T09:47:13;97127.25;;;15.74;100.00
29045;BME280;16133;49.486;12.176;2023-08-07T09:49:39;97131.06;;;15.85;100.00
29045;BME280;16133;49.486;12.176;2023-08-07T09:52:06;97130.53;;;15.95;98.09
29045;BME280;16133;49.486;12.176;2023-08-07T09:54:33;97132.19;;;15.96;99.34
29045;BME280;16133;49.486;12.176;2023-08-07T09:56:59;97132.22;;;16.14;100.00
29045;BME280;16133;49.486;12.176;2023-08-07T09:59:26;97143.00;;;16.25;99.04
29045;BME280;16133;49.486;12.176;2023-08-07T10:01:53;97136.84;;;16.43;95.97
29045;BME280;16133;49.486;12.176;2023-08-07T10:04:18;97141.13;;;16.69;94.51
29045;BME280;16133;49.486;12.176;2023-08-07T10:06:45;97136.69;;;16.93;94.52
29045;BME280;16133;49.486;12.176;2023-08-07T10:09:11;97132.88;;;17.30;90.15
29045;BME280;16133;49.486;12.176;2023-08-07T10:11:38;97146.69;;;17.45;86.83
29045;BME280;16133;49.486;12.176;2023-08-07T10:14:06;97138.88;;;17.44;88.22
29045;BME280;16133;49.486;12.176;2023-08-07T10:16:32;97139.25;;;17.47;86.61
29045;BME280;16133;49.486;12.176;2023-08-07T10:19:03;97156.13;;;17.48;86.29
29045;BME280;16133;49.486;12.176;2023-08-07T10:21:29;97146.22;;;17.48;87.90
29045;BME280;16133;49.486;12.176;2023-08-07T10:23:55;97148.13;;;17.59;86.54
29045;BME280;16133;49.486;12.176;2023-08-07T10:26:23;97148.38;;;17.58;85.14
29045;BME280;16133;49.486;12.176;2023-08-07T10:28:50;97155.41;;;17.41;86.73
29045;BME280;16133;49.486;12.176;2023-08-07T10:31:18;97169.44;;;17.13;86.78
29045;BME280;16133;49.486;12.176;2023-08-07T10:33:48;97155.09;;;17.19;86.85
29045;BME280;16133;49.486;12.176;2023-08-07T10:36:16;97172.53;;;17.28;84.54
29045;BME280;16133;49.486;12.176;2023-08-07T10:38:42;97162.41;;;16.82;86.95
29045;BME280;16133;49.486;12.176;2023-08-07T10:41:09;97158.47;;;16.66;89.19
29045;BME280;16133;49.486;12.176;2023-08-07T10:43:43;97167.31;;;16.85;90.38
29045;BME280;16133;49.486;12.176;2023-08-07T10:46:15;97169.47;;;16.77;86.95
29045;BME280;16133;49.486;12.176;2023-08-07T10:48:44;97174.06;;;16.88;86.29
29045;BME280;16133;49.486;12.176;2023-08-07T10:51:16;97174.38;;;16.80;88.63
29045;BME280;16133;49.486;12.176;2023-08-07T10:53:44;97178.09;;;16.97;84.36
29045;BME280;16133;49.486;12.176;2023-08-07T10:56:29;97171.34;;;17.06;84.32
29045;BME280;16133;49.486;12.176;2023-08-07T10:58:55;97173.25;;;17.35;82.91
29045;BME280;16133;49.486;12.176;2023-08-07T11:03:55;97170.25;;;17.43;81.49
29045;BME280;16133;49.486;12.176;2023-08-07T11:06:26;97166.34;;;17.57;80.45
29045;BME280;16133;49.486;12.176;2023-08-07T11:08:52;97174.31;;;17.76;76.50
29045;BME280;16133;49.486;12.176;2023-08-07T11:11:18;97180.75;;;17.98;76.45
29045;BME280;16133;49.486;12.176;2023-08-07T11:13:45;97178.06;;;17.98;78.23
29045;BME280;16133;49.486;12.176;2023-08-07T11:16:11;97167.94;;;18.00;78.56
29045;BME280;16133;49.486;12.176;2023-08-07T11:18:37;97165.38;;;18.51;75.94
29045;BME280;16133;49.486;12.176;2023-08-07T11:21:06;97166.06;;;18.82;72.56
29045;BME280;16133;49.486;12.176;2023-08-07T11:23:31;97168.50;;;18.48;74.23
29045;BME280;16133;49.486;12.176;2023-08-07T11:25:56;97169.59;;;18.12;76.45
29045;BME280;16133;49.486;12.176;2023-08-07T11:28:23;97178.47;;;18.01;75.04
29045;BME280;16133;49.486;12.176;2023-08-07T11:30:52;97181.09;;;17.78;78.90
29045;BME280;16133;49.486;12.176;2023-08-07T11:33:19;97179.78;;;17.69;76.50
29045;BME280;16133;49.486;12.176;2023-08-07T11:35:46;97186.38;;;17.25;77.61
29045;BME280;16133;49.486;12.176;2023-08-07T11:38:11;97191.69;;;17.13;78.75
29045;BME280;16133;49.486;12.176;2023-08-07T11:40:37;97184.06;;;16.62;82.52
29045;BME280;16133;49.486;12.176;2023-08-07T11:43:02;97190.53;;;16.30;85.49
29045;BME280;16133;49.486;12.176;2023-08-07T11:45:28;97193.50;;;15.72;90.01
29045;BME280;16133;49.486;12.176;2023-08-07T11:47:54;97191.59;;;15.55;92.22
29045;BME280;16133;49.486;12.176;2023-08-07T11:50:22;97201.41;;;15.23;96.65
29045;BME280;16133;49.486;12.176;2023-08-07T11:52:48;97198.84;;;14.97;98.89
29045;BME280;16133;49.486;12.176;2023-08-07T11:55:17;97201.72;;;14.95;100.00
29045;BME280;16133;49.486;12.176;2023-08-07T11:57:46;97199.97;;;15.20;100.00
29045;BME280;16133;49.486;12.176;2023-08-07T12:00:12;97200.38;;;15.24;95.28
29045;BME280;16133;49.486;12.176;2023-08-07T12:02:42;97203.88;;;15.18;96.89
29045;BME280;16133;49.486;12.176;2023-08-07T12:05:10;97207.97;;;15.27;100.00
29045;BME280;16133;49.486;12.176;2023-08-07T12:07:39;97204.22;;;15.35;98.29
29045;BME280;16133;49.486;12.176;2023-08-07T12:10:07;97218.13;;;15.50;99.30
29045;BME280;16133;49.486;12.176;2023-08-07T12:12:35;97214.97;;;15.66;97.47
29045;BME280;16133;49.486;12.176;2023-08-07T12:15:01;97219.72;;;15.89;92.80
29045;BME280;16133;49.486;12.176;2023-08-07T12:17:26;97219.91;;;15.94;93.51
29045;BME280;16133;49.486;12.176;2023-08-07T12:19:51;97226.56;;;15.85;93.95
29045;BME280;16133;49.486;12.176;2023-08-07T12:22:19;97229.72;;;15.75;93.24
29045;BME280;16133;49.486;12.176;2023-08-07T12:24:45;97229.16;;;15.66;94.11
29045;BME280;16133;49.486;12.176;2023-08-07T12:27:10;97228.22;;;15.48;94.17
29045;BME280;16133;49.486;12.176;2023-08-07T12:29:37;97228.19;;;15.54;97.79
29045;BME280;16133;49.486;12.176;2023-08-07T12:32:03;97231.53;;;15.43;97.42
29045;BME280;16133;49.486;12.176;2023-08-07T12:34:28;97233.63;;;15.35;95.56
29045;BME280;16133;49.486;12.176;2023-08-07T12:36:53;97235.13;;;15.24;97.46
29045;BME280;16133;49.486;12.176;2023-08-07T12:39:19;97225.31;;;15.11;93.01
29045;BME280;16133;49.486;12.176;2023-08-07T12:41:46;97224.81;;;14.83;97.35
29045;BME280;16133;49.486;12.176;2023-08-07T12:44:13;97240.88;;;14.70;97.73
29045;BME280;16133;49.486;12.176;2023-08-07T12:46:39;97235.94;;;14.60;98.65
29045;BME280;16133;49.486;12.176;2023-08-07T12:49:05;97228.75;;;14.67;95.53
29045;BME280;16133;49.486;12.176;2023-08-07T12:51:32;97248.09;;;14.56;99.50